Truthville, New York
Current Conditions -  °F | °C
As of 12:53 AM on Friday 19 Dec 2014 (Local Time) from KGFL Reporting Station
Overcast Overcast  
Wind Chill: 26°   Ceiling: 3100
Heat Index: 32°   Visibility: 10mi
Dew Point: 22°   Wind: 6mph
Humidity: 66%   Direction: 20°NNE
Pressure: 29.92"   Gusts: NA
Location:  43.3389°N, 73.3194°W
Report Text: KGFL 190553Z AUTO 02005KT 10SM BKN031 OVC049 00/M06 A2992 RMK AO2 SLP140 T00001056 10017 20000 51001
Loading
Personal Weather Stations






























Interactive Weather Map New forecast layout! Learn more

10-Day Weather Forecast

Advertisements
Track Severe Weather on mobile